Time;durP1;ratioP1;P1;durP2;ratioP2;P2;SDS_P1;SDS_P2;PMS_P1;PMS_P2;Temp;Humidity;BMP_temperature;BMP_pressure;BME280_temperature;BME280_humidity;BME280_pressure;Samples;Min_cycle;Max_cycle;Signal;HPM_P1;HPM_P2
2023/03/18 00:00:35;;;;;;;9.30;6.63;;;;;;;9.64;63.19;98347.59;5074738;28;38879;-81
2023/03/18 00:03:02;;;;;;;8.53;6.43;;;;;;;9.64;64.71;98352.88;5074826;28;40701;-87
2023/03/18 00:05:33;;;;;;;10.33;7.50;;;;;;;9.61;64.26;98360.19;5074546;28;41727;-82
2023/03/18 00:08:01;;;;;;;8.80;7.10;;;;;;;9.56;64.15;98371.06;5074007;28;43235;-89
2023/03/18 00:10:33;;;;;;;8.70;6.97;;;;;;;9.53;64.02;98371.25;5075225;28;39201;-91
2023/03/18 00:13:03;;;;;;;8.73;6.27;;;;;;;9.39;63.98;98350.19;5091192;28;41875;-87
2023/03/18 00:15:31;;;;;;;9.00;7.50;;;;;;;9.45;64.05;98359.50;5074624;28;41806;-83
2023/03/18 00:18:02;;;;;;;7.63;6.00;;;;;;;9.44;63.75;98371.88;5091457;28;41289;-83
2023/03/18 00:20:38;;;;;;;7.97;6.30;;;;;;;9.41;64.02;98377.34;5091333;28;40674;-88
2023/03/18 00:23:07;;;;;;;7.90;6.80;;;;;;;9.36;63.72;98384.75;5090002;28;42901;-83
2023/03/18 00:25:36;;;;;;;9.07;6.33;;;;;;;9.32;64.00;98388.53;5074055;28;42165;-82
2023/03/18 00:28:05;;;;;;;7.87;7.00;;;;;;;9.29;65.57;98373.72;5074061;28;41333;-86
2023/03/18 00:30:33;;;;;;;9.27;6.50;;;;;;;9.16;65.91;98356.97;5076581;28;40387;-85
2023/03/18 00:33:01;;;;;;;8.00;6.10;;;;;;;9.25;66.87;98371.38;5094451;28;42170;-85
2023/03/18 00:35:29;;;;;;;8.13;6.43;;;;;;;9.12;66.52;98357.28;5077734;28;43296;-84
2023/03/18 00:37:59;;;;;;;9.80;7.30;;;;;;;9.07;68.27;98351.44;5094057;28;42105;-85
2023/03/18 00:40:41;;;;;;;8.67;6.63;;;;;;;9.17;67.54;98384.22;5077837;28;39919;-85
2023/03/18 00:43:11;;;;;;;8.77;6.57;;;;;;;9.06;66.71;98382.28;5092329;28;42506;-81
2023/03/18 00:45:41;;;;;;;8.07;6.70;;;;;;;9.07;66.61;98388.41;5077654;28;42888;-83
2023/03/18 00:48:10;;;;;;;10.00;6.53;;;;;;;8.86;66.36;98365.06;5094231;28;43562;-85
2023/03/18 00:50:37;;;;;;;7.43;5.87;;;;;;;9.06;67.07;98399.91;5077024;28;39189;-89
2023/03/18 00:53:06;;;;;;;6.90;5.80;;;;;;;9.03;66.92;98387.75;5093901;28;41517;-81
2023/03/18 00:55:34;;;;;;;7.07;5.63;;;;;;;9.00;66.99;98391.47;5077199;28;42607;-81
2023/03/18 00:58:02;;;;;;;8.27;6.10;;;;;;;8.87;67.16;98382.59;5076616;28;41228;-86
2023/03/18 01:00:30;;;;;;;8.50;6.07;;;;;;;8.95;66.80;98406.72;5077380;28;38765;-83
2023/03/18 01:02:58;;;;;;;7.47;6.17;;;;;;;8.93;66.48;98405.97;5076832;28;40554;-85
2023/03/18 01:05:27;;;;;;;6.70;5.70;;;;;;;8.62;66.70;98361.34;5095520;28;42523;-84
2023/03/18 01:07:55;;;;;;;6.60;5.27;;;;;;;8.83;66.28;98407.50;5076823;28;42366;-88
2023/03/18 01:10:24;;;;;;;7.47;5.50;;;;;;;8.88;66.35;98409.88;5094173;28;41156;-84
2023/03/18 01:12:52;;;;;;;5.77;5.10;;;;;;;8.88;66.40;98410.72;5076612;28;41126;-79
2023/03/18 01:15:22;;;;;;;9.50;5.47;;;;;;;8.93;66.63;98413.91;5077092;28;43125;-87
2023/03/18 01:17:51;;;;;;;6.57;5.43;;;;;;;8.92;66.38;98406.91;5076610;28;40993;-84
2023/03/18 01:20:20;;;;;;;6.20;5.27;;;;;;;8.95;66.29;98396.16;5094340;28;39925;-82
2023/03/18 01:22:52;;;;;;;7.00;6.03;;;;;;;9.03;66.79;98395.66;5076832;28;41704;-84
2023/03/18 01:25:20;;;;;;;7.73;6.37;;;;;;;9.07;67.26;98393.69;5077073;28;41822;-88
2023/03/18 01:27:54;;;;;;;8.07;6.37;;;;;;;8.96;66.85;98386.44;5091729;28;42336;-85
2023/03/18 01:30:23;;;;;;;7.47;5.93;;;;;;;9.07;66.82;98405.09;5076634;28;39902;-86
2023/03/18 01:32:53;;;;;;;8.20;6.17;;;;;;;9.08;66.46;98398.03;5091298;28;42706;-81
2023/03/18 01:35:21;;;;;;;8.27;6.30;;;;;;;8.74;66.67;98351.78;5079923;28;41608;-84
2023/03/18 01:37:52;;;;;;;8.67;6.80;;;;;;;9.08;66.50;98401.53;5082142;28;41391;-80
2023/03/18 01:40:21;;;;;;;7.50;5.67;;;;;;;9.02;66.55;98395.78;5105011;28;40240;-78
2023/03/18 01:42:57;;;;;;;8.47;5.70;;;;;;;9.07;66.51;98412.19;5078509;28;40808;-81
2023/03/18 01:45:31;;;;;;;9.13;5.90;;;;;;;8.92;66.24;98390.22;5077282;28;43728;-90
2023/03/18 01:48:05;;;;;;;8.70;6.43;;;;;;;9.04;66.53;98415.00;5077292;28;42388;-83
2023/03/18 01:50:34;;;;;;;7.93;6.60;;;;;;;9.04;66.73;98409.72;5094000;28;40873;-89
2023/03/18 01:53:07;;;;;;;6.70;5.63;;;;;;;9.07;66.87;98409.53;5076201;28;41549;-86
2023/03/18 01:55:36;;;;;;;8.23;6.57;;;;;;;9.10;66.72;98404.91;5076686;28;41952;-81
2023/03/18 01:58:10;;;;;;;8.80;6.60;;;;;;;9.16;66.75;98414.22;5076393;28;41292;-87
2023/03/18 02:00:43;;;;;;;8.13;7.23;;;;;;;9.19;66.47;98408.75;5090348;28;40810;-85
2023/03/18 02:03:13;;;;;;;7.00;5.97;;;;;;;9.11;66.49;98401.34;5091845;28;41736;-82
2023/03/18 02:05:43;;;;;;;7.07;5.67;;;;;;;9.09;66.44;98391.81;5082826;28;41543;-80
2023/03/18 02:08:11;;;;;;;7.83;6.13;;;;;;;9.27;66.52;98409.13;5099280;28;41895;-81
2023/03/18 02:10:39;;;;;;;6.00;5.37;;;;;;;9.34;66.07;98413.06;5096912;28;40587;-84
2023/03/18 02:13:11;;;;;;;8.17;6.37;;;;;;;9.36;66.46;98414.66;5079441;28;40914;-81
2023/03/18 02:15:46;;;;;;;6.33;5.20;;;;;;;9.31;66.26;98408.81;5094230;28;43282;-83
2023/03/18 02:18:20;;;;;;;6.17;5.13;;;;;;;9.35;66.04;98409.47;5094727;28;42441;-83
2023/03/18 02:21:00;;;;;;;7.57;5.87;;;;;;;9.33;66.13;98416.66;5077367;28;39093;-86
2023/03/18 02:23:40;;;;;;;8.90;6.20;;;;;;;9.18;66.16;98407.06;5092330;28;42204;-89
2023/03/18 02:26:13;;;;;;;6.97;5.93;;;;;;;9.31;66.14;98423.81;5076947;28;41506;-79
2023/03/18 02:28:45;;;;;;;7.53;5.13;;;;;;;9.19;66.00;98399.03;5092035;28;42193;-88
2023/03/18 02:31:16;;;;;;;6.53;5.60;;;;;;;9.25;66.14;98413.66;5076403;28;39997;-83
2023/03/18 02:33:46;;;;;;;7.07;5.40;;;;;;;9.29;66.63;98409.84;5075801;28;41843;-84
2023/03/18 02:36:18;;;;;;;7.87;5.77;;;;;;;9.42;66.37;98431.91;5075813;28;42521;-87
2023/03/18 02:38:47;;;;;;;7.37;6.20;;;;;;;9.45;67.17;98421.13;5075941;28;42344;-86
2023/03/18 02:41:25;;;;;;;7.80;5.70;;;;;;;9.37;67.73;98412.88;5090216;28;40907;-84
2023/03/18 02:43:54;;;;;;;7.23;6.47;;;;;;;9.45;69.14;98415.84;5092632;28;42047;-87
2023/03/18 02:46:34;;;;;;;6.70;5.80;;;;;;;9.40;68.27;98412.66;5089581;28;42794;-80
2023/03/18 02:49:05;;;;;;;7.07;5.20;;;;;;;9.39;67.99;98410.13;5075893;28;41187;-79
2023/03/18 02:51:34;;;;;;;5.83;5.23;;;;;;;9.55;67.69;98422.22;5075624;28;39510;-82
2023/03/18 02:54:06;;;;;;;6.93;4.97;;;;;;;9.59;67.25;98429.03;5091809;28;41120;-87
2023/03/18 02:56:35;;;;;;;4.87;4.37;;;;;;;9.62;67.42;98433.28;5089536;28;43254;-81
2023/03/18 02:59:04;;;;;;;6.27;4.57;;;;;;;9.66;66.87;98435.59;5092266;28;42599;-85
2023/03/18 03:01:36;;;;;;;5.30;4.60;;;;;;;9.67;67.09;98439.94;5076237;28;39304;-87
2023/03/18 03:04:05;;;;;;;6.00;4.53;;;;;;;9.69;66.55;98440.69;5075016;28;40704;-87
2023/03/18 03:06:34;;;;;;;5.77;4.40;;;;;;;9.71;66.43;98444.09;5075125;28;41623;-80
2023/03/18 03:09:02;;;;;;;5.83;4.70;;;;;;;9.76;66.46;98446.44;5092075;28;42565;-84
2023/03/18 03:11:30;;;;;;;4.13;3.73;;;;;;;9.64;66.11;98421.63;5075385;28;39210;-88
2023/03/18 03:14:08;;;;;;;4.40;4.00;;;;;;;9.78;66.53;98448.97;5075237;28;40476;-80
2023/03/18 03:16:37;;;;;;;4.67;4.20;;;;;;;9.79;66.41;98455.94;5092168;28;42926;-83
2023/03/18 03:19:06;;;;;;;5.17;4.60;;;;;;;9.65;66.26;98433.91;5075056;28;40982;-87
2023/03/18 03:21:35;;;;;;;5.43;4.40;;;;;;;9.82;66.83;98450.47;5074732;28;38549;-80
2023/03/18 03:24:04;;;;;;;6.33;4.93;;;;;;;9.70;66.97;98431.81;5091864;28;41074;-85
2023/03/18 03:26:32;;;;;;;8.57;6.13;;;;;;;9.80;67.65;98442.63;5092156;28;43727;-87
2023/03/18 03:29:00;;;;;;;7.43;5.40;;;;;;;9.77;67.76;98445.47;5074485;28;41188;-86
2023/03/18 03:31:30;;;;;;;6.77;5.07;;;;;;;9.64;67.78;98436.66;5075353;28;40605;-91
2023/03/18 03:33:58;;;;;;;7.23;5.40;;;;;;;9.57;67.36;98441.50;5074536;28;40706;-87
2023/03/18 03:36:26;;;;;;;6.80;5.37;;;;;;;9.61;67.22;98453.56;5074939;28;42785;-85
2023/03/18 03:38:57;;;;;;;11.33;7.00;;;;;;;9.44;69.15;98440.59;5075146;28;41117;-82
2023/03/18 03:41:25;;;;;;;8.20;6.30;;;;;;;9.32;68.45;98433.44;5092110;28;39918;-86
2023/03/18 03:43:53;;;;;;;5.40;4.77;;;;;;;9.35;68.23;98449.13;5074349;28;40871;-87
2023/03/18 03:46:20;;;;;;;5.90;5.03;;;;;;;9.36;68.12;98462.22;5075106;28;42612;-85
2023/03/18 03:48:50;;;;;;;5.47;4.93;;;;;;;9.35;67.96;98463.19;5074617;28;42243;-82
2023/03/18 03:51:18;;;;;;;4.70;4.20;;;;;;;9.35;68.81;98457.03;5074586;28;40063;-90
2023/03/18 03:53:46;;;;;;;6.23;5.40;;;;;;;9.34;69.22;98461.47;5091668;28;42718;-89
2023/03/18 03:56:16;;;;;;;6.83;4.80;;;;;;;9.35;69.05;98462.31;5091020;28;42744;-82
2023/03/18 03:58:44;;;;;;;7.43;5.60;;;;;;;9.33;69.32;98459.78;5074403;28;41146;-82
2023/03/18 04:01:12;;;;;;;6.47;5.33;;;;;;;9.33;68.88;98464.22;5074730;28;39096;-81
2023/03/18 04:03:41;;;;;;;6.63;5.03;;;;;;;9.29;69.12;98463.56;5075673;28;41971;-78
2023/03/18 04:06:10;;;;;;;7.43;5.63;;;;;;;9.23;69.22;98463.97;5098650;28;43063;-81
2023/03/18 04:08:45;;;;;;;7.30;6.00;;;;;;;9.19;68.70;98466.88;5083277;28;40830;-81
2023/03/18 04:11:13;;;;;;;8.00;5.20;;;;;;;9.14;68.86;98468.97;5082700;28;38611;-87
2023/03/18 04:13:42;;;;;;;7.30;6.07;;;;;;;9.10;69.01;98473.59;5097649;28;41752;-83
2023/03/18 04:16:10;;;;;;;7.00;5.80;;;;;;;8.87;69.36;98438.06;5081858;28;41586;-83
2023/03/18 04:18:38;;;;;;;9.83;7.00;;;;;;;9.06;69.12;98476.50;5081771;28;42140;-84
2023/03/18 04:21:06;;;;;;;7.40;6.20;;;;;;;9.06;69.10;98476.50;5086191;28;40246;-78
2023/03/18 04:23:47;;;;;;;8.87;6.13;;;;;;;9.02;68.86;98476.69;5089628;28;40675;-78
2023/03/18 04:26:15;;;;;;;6.87;5.83;;;;;;;9.12;68.85;98482.28;5104390;28;43120;-80
2023/03/18 04:28:43;;;;;;;7.60;6.10;;;;;;;9.06;69.18;98476.50;5105542;28;43684;-84
2023/03/18 04:31:13;;;;;;;7.93;6.57;;;;;;;9.10;69.31;98485.94;5086245;28;39036;-78
2023/03/18 04:33:42;;;;;;;6.80;6.07;;;;;;;9.11;68.90;98485.88;5089334;28;41456;-77
2023/03/18 04:36:10;;;;;;;5.90;5.30;;;;;;;9.09;68.78;98495.66;5082491;28;41762;-79
2023/03/18 04:38:38;;;;;;;6.40;5.27;;;;;;;9.05;68.62;98486.22;5082196;28;41801;-77
2023/03/18 04:41:08;;;;;;;6.87;5.30;;;;;;;8.95;68.57;98480.66;5088295;28;39245;-78
2023/03/18 04:43:36;;;;;;;6.20;4.90;;;;;;;8.96;68.39;98487.66;5087773;28;40686;-78
2023/03/18 04:46:05;;;;;;;8.70;5.17;;;;;;;9.13;68.48;98493.69;5085520;28;42871;-78
2023/03/18 04:48:35;;;;;;;5.30;4.47;;;;;;;9.16;68.39;98491.69;5087128;28;41190;-78
2023/03/18 04:51:07;;;;;;;6.93;4.97;;;;;;;9.18;68.75;98484.53;5089730;28;38891;-79
2023/03/18 04:53:35;;;;;;;8.27;5.53;;;;;;;9.19;69.79;98472.16;5078392;28;40634;-83
2023/03/18 04:56:04;;;;;;;6.53;5.00;;;;;;;9.21;69.16;98470.28;5079041;28;41284;-87
2023/03/18 04:58:43;;;;;;;7.63;4.87;;;;;;;9.17;68.84;98466.13;5077367;28;42210;-86
2023/03/18 05:01:16;;;;;;;5.10;4.20;;;;;;;9.29;68.79;98487.34;5076976;28;39880;-86
2023/03/18 05:03:44;;;;;;;4.60;4.10;;;;;;;9.33;68.23;98490.63;5075910;28;41911;-82
2023/03/18 05:06:22;;;;;;;6.47;4.70;;;;;;;9.26;68.17;98478.78;5077068;28;41820;-89
2023/03/18 05:08:55;;;;;;;4.57;4.10;;;;;;;9.29;68.27;98499.69;5093064;28;42631;-86
2023/03/18 05:11:25;;;;;;;7.03;5.10;;;;;;;9.24;68.41;98501.78;5093570;28;40094;-84
2023/03/18 05:13:56;;;;;;;5.30;4.40;;;;;;;9.16;68.51;98488.19;5093226;28;40947;-85
2023/03/18 05:16:25;;;;;;;6.23;5.20;;;;;;;9.05;69.75;98466.88;5090181;28;43354;-86
2023/03/18 05:18:54;;;;;;;7.93;5.60;;;;;;;8.84;70.51;98430.31;5076208;28;41456;-85
2023/03/18 05:21:21;;;;;;;6.77;5.40;;;;;;;9.08;70.04;98474.63;5076654;28;39971;-84
2023/03/18 05:23:49;;;;;;;6.80;5.03;;;;;;;9.06;69.64;98465.94;5092423;28;41696;-84
2023/03/18 05:26:17;;;;;;;6.37;5.10;;;;;;;8.99;69.29;98458.44;5076298;28;42205;-81
2023/03/18 05:28:47;;;;;;;5.23;4.37;;;;;;;9.20;69.15;98482.63;5076188;28;41203;-84
2023/03/18 05:31:38;;;;;;;6.23;5.30;;;;;;;9.23;69.35;98484.25;5092496;28;39077;-81
2023/03/18 05:34:07;;;;;;;4.77;4.30;;;;;;;9.25;69.09;98488.50;5076528;28;41703;-85
2023/03/18 05:36:37;;;;;;;4.77;4.20;;;;;;;9.27;68.91;98488.41;5093502;28;42475;-83
2023/03/18 05:39:09;;;;;;;5.10;4.60;;;;;;;9.31;68.77;98487.25;5076372;28;41253;-84
2023/03/18 05:41:38;;;;;;;4.87;4.30;;;;;;;9.37;68.60;98497.44;5093316;28;39777;-80
2023/03/18 05:44:09;;;;;;;4.13;3.73;;;;;;;9.38;68.45;98508.84;5076097;28;40770;-88
2023/03/18 05:46:41;;;;;;;5.50;4.57;;;;;;;9.34;68.47;98508.19;5093313;28;43496;-87
2023/03/18 05:49:17;;;;;;;4.70;4.20;;;;;;;9.28;69.00;98508.56;5076044;28;41487;-80
2023/03/18 05:52:01;;;;;;;6.47;4.67;;;;;;;9.19;68.85;98501.22;5076221;28;38551;-79
2023/03/18 05:54:44;;;;;;;4.80;3.93;;;;;;;9.08;69.18;98501.91;5092816;28;42400;-82
2023/03/18 05:57:15;;;;;;;5.93;4.70;;;;;;;8.99;69.29;98494.56;5076357;28;42054;-88
2023/03/18 05:59:44;;;;;;;6.10;5.27;;;;;;;8.82;70.88;98474.44;5093963;28;42291;-88
2023/03/18 06:02:14;;;;;;;6.77;5.70;;;;;;;8.93;70.76;98498.41;5078354;28;39216;-82
2023/03/18 06:04:42;;;;;;;6.30;5.53;;;;;;;8.93;70.70;98495.75;5092661;28;41855;-86
2023/03/18 06:07:11;;;;;;;7.57;5.50;;;;;;;9.05;70.12;98503.88;5092571;28;42838;-85
2023/03/18 06:09:38;;;;;;;8.37;6.47;;;;;;;9.17;69.73;98508.38;5092593;28;42164;-87
2023/03/18 06:12:07;;;;;;;8.30;6.10;;;;;;;9.29;70.22;98504.97;5092685;28;39912;-87
2023/03/18 06:14:34;;;;;;;8.53;5.97;;;;;;;9.33;70.09;98485.34;5093245;28;42084;-86
2023/03/18 06:17:04;;;;;;;7.13;6.03;;;;;;;9.54;69.81;98499.84;5092633;28;43858;-81
2023/03/18 06:19:34;;;;;;;7.17;6.43;;;;;;;9.77;69.13;98510.75;5092030;28;43222;-87
2023/03/18 06:22:01;;;;;;;7.00;5.63;;;;;;;9.87;69.75;98499.47;5091254;28;40709;-87
2023/03/18 06:24:29;;;;;;;9.37;6.50;;;;;;;9.94;69.75;98491.97;5091714;28;41787;-83
2023/03/18 06:26:58;;;;;;;8.77;6.60;;;;;;;10.03;69.76;98501.94;5074267;28;41948;-87
2023/03/18 06:29:26;;;;;;;8.57;6.50;;;;;;;10.05;69.25;98507.97;5074612;28;40898;-80
2023/03/18 06:31:57;;;;;;;8.40;5.87;;;;;;;10.01;69.00;98511.81;5075542;28;40192;-82
2023/03/18 06:34:27;;;;;;;7.40;5.93;;;;;;;9.93;70.29;98516.72;5091796;28;41601;-83
2023/03/18 06:36:58;;;;;;;8.67;6.10;;;;;;;9.85;70.77;98503.16;5075248;28;43467;-82
2023/03/18 06:39:27;;;;;;;9.10;6.23;;;;;;;9.83;70.57;98511.19;5074860;28;41153;-85
2023/03/18 06:41:55;;;;;;;6.90;5.77;;;;;;;9.85;69.99;98519.03;5076336;28;39793;-79
2023/03/18 06:44:30;;;;;;;6.13;5.43;;;;;;;9.89;69.96;98520.53;5074761;28;40480;-82
2023/03/18 06:47:05;;;;;;;6.70;5.23;;;;;;;9.95;69.39;98523.63;5075957;28;41925;-80
2023/03/18 06:49:36;;;;;;;6.77;5.30;;;;;;;10.00;69.16;98523.31;5075416;28;41258;-86
2023/03/18 06:52:16;;;;;;;7.47;6.23;;;;;;;10.12;70.44;98511.94;5088882;28;41197;-87
2023/03/18 06:54:46;;;;;;;7.77;6.60;;;;;;;10.21;71.01;98521.94;5075236;28;41107;-89
2023/03/18 06:57:15;;;;;;;7.10;5.93;;;;;;;10.12;70.44;98481.97;5091956;28;42697;-84
2023/03/18 06:59:44;;;;;;;7.60;6.37;;;;;;;10.63;70.02;98518.19;5075019;28;42228;-82
2023/03/18 07:02:12;;;;;;;6.77;5.97;;;;;;;11.00;69.02;98505.09;5075036;28;39908;-78
2023/03/18 07:04:40;;;;;;;7.37;6.37;;;;;;;11.66;67.71;98504.72;5076932;28;40822;-82
2023/03/18 07:07:08;;;;;;;6.53;5.67;;;;;;;12.76;65.93;98539.00;5076302;28;41756;-88
2023/03/18 07:09:39;;;;;;;7.87;6.83;;;;;;;13.73;63.45;98557.09;5083352;28;41023;-79
2023/03/18 07:12:07;;;;;;;8.80;7.13;;;;;;;14.34;60.86;98567.13;5086700;28;39118;-79
2023/03/18 07:14:35;;;;;;;8.57;7.13;;;;;;;14.78;59.49;98569.78;5086459;28;42825;-77
2023/03/18 07:17:03;;;;;;;10.07;7.53;;;;;;;15.65;57.60;98589.84;5103528;28;42880;-78
2023/03/18 07:19:32;;;;;;;8.53;7.60;;;;;;;16.51;54.61;98605.25;5098224;28;41211;-79
2023/03/18 07:22:01;;;;;;;9.40;7.00;;;;;;;16.55;53.72;98612.00;5093497;28;40045;-86
2023/03/18 07:24:29;;;;;;;7.57;6.40;;;;;;;16.35;53.83;98604.94;5075873;28;41515;-82
2023/03/18 07:26:58;;;;;;;6.00;5.10;;;;;;;16.11;53.79;98607.97;5075468;28;42662;-84
2023/03/18 07:29:26;;;;;;;5.97;5.37;;;;;;;15.92;54.54;98603.44;5075488;28;42016;-85
2023/03/18 07:31:54;;;;;;;6.50;5.50;;;;;;;15.87;54.62;98602.13;5092223;28;40876;-86
2023/03/18 07:34:23;;;;;;;6.97;5.13;;;;;;;16.01;54.34;98601.78;5074852;28;41142;-86
2023/03/18 07:36:50;;;;;;;5.83;5.23;;;;;;;16.20;54.18;98607.16;5091706;28;43560;-89
2023/03/18 07:39:18;;;;;;;7.40;5.33;;;;;;;16.16;53.52;98617.28;5076074;28;40821;-87
2023/03/18 07:41:48;;;;;;;7.07;4.87;;;;;;;16.10;53.83;98609.81;5096675;28;40105;-84
2023/03/18 07:44:24;;;;;;;6.87;5.43;;;;;;;16.02;54.07;98598.97;5077950;28;40477;-85
2023/03/18 07:46:52;;;;;;;6.40;5.50;;;;;;;16.07;53.47;98610.06;5078726;28;43140;-81
2023/03/18 07:49:20;;;;;;;7.67;5.63;;;;;;;16.04;53.68;98604.19;5078033;28;40845;-87
2023/03/18 07:51:48;;;;;;;6.33;4.53;;;;;;;16.07;53.46;98606.59;5078108;28;39272;-82
2023/03/18 07:54:16;;;;;;;8.57;5.43;;;;;;;16.10;53.84;98592.94;5077547;28;40970;-84
2023/03/18 07:56:44;;;;;;;7.83;5.30;;;;;;;16.24;53.85;98605.91;5094649;28;42037;-85
2023/03/18 07:59:12;;;;;;;6.73;5.50;;;;;;;16.26;53.74;98611.09;5077487;28;41573;-84
2023/03/18 08:01:42;;;;;;;7.03;5.80;;;;;;;16.14;53.82;98592.53;5094977;28;38824;-85
2023/03/18 08:04:10;;;;;;;7.33;5.40;;;;;;;16.20;54.11;98611.66;5076921;28;40618;-81
2023/03/18 08:06:39;;;;;;;6.53;5.77;;;;;;;16.07;54.13;98615.41;5096462;28;42952;-80
2023/03/18 08:09:07;;;;;;;6.27;5.40;;;;;;;15.86;54.22;98619.13;5077635;28;40680;-85
2023/03/18 08:11:35;;;;;;;7.93;5.57;;;;;;;15.65;54.70;98611.19;5077934;28;40269;-83
2023/03/18 08:14:03;;;;;;;6.57;5.43;;;;;;;15.57;54.79;98619.88;5094498;28;41819;-86
2023/03/18 08:16:31;;;;;;;7.93;5.37;;;;;;;15.54;54.75;98608.59;5077895;28;42916;-87
2023/03/18 08:19:00;;;;;;;6.87;5.57;;;;;;;15.61;54.82;98605.25;5094037;28;42399;-84
2023/03/18 08:21:28;;;;;;;7.13;6.20;;;;;;;15.78;54.55;98601.13;5094180;28;39043;-88
2023/03/18 08:23:56;;;;;;;6.80;6.03;;;;;;;16.68;53.67;98620.63;5094284;28;42210;-79
2023/03/18 08:26:24;;;;;;;6.73;6.00;;;;;;;18.67;50.73;98635.53;5094664;28;43747;-86
2023/03/18 08:28:52;;;;;;;9.20;5.90;;;;;;;20.95;46.81;98651.19;5077256;28;42569;-88
2023/03/18 08:31:20;;;;;;;8.57;5.87;;;;;;;23.56;41.47;98677.94;5077820;28;38902;-86
2023/03/18 08:33:48;;;;;;;7.57;6.40;;;;;;;25.34;38.56;98688.47;5095113;28;42722;-82
2023/03/18 08:36:17;;;;;;;9.57;6.70;;;;;;;26.30;36.29;98694.28;5077629;28;41594;-91
2023/03/18 08:38:45;;;;;;;9.50;6.77;;;;;;;26.01;36.53;98688.00;5095124;28;42176;-88
2023/03/18 08:41:13;;;;;;;9.97;6.90;;;;;;;27.77;33.81;98704.38;5095809;28;40848;-86
2023/03/18 08:43:41;;;;;;;6.77;5.90;;;;;;;29.50;31.60;98711.81;5076652;28;40723;-86
2023/03/18 08:46:09;;;;;;;8.48;6.28;;;;;;;30.98;29.95;98715.44;5093945;28;41874;-83
2023/03/18 08:48:37;;;;;;;6.93;5.25;;;;;;;32.35;27.14;98726.41;5093662;28;42349;-80
2023/03/18 08:51:07;;;;;;;6.90;4.63;;;;;;;33.37;25.62;98723.94;5093315;28;40461;-85
2023/03/18 08:53:36;;;;;;;5.57;5.03;;;;;;;34.31;23.91;98738.78;5076414;28;41985;-88
2023/03/18 08:56:06;;;;;;;7.68;4.70;;;;;;;35.55;23.45;98735.44;5093439;28;43682;-85
2023/03/18 08:58:34;;;;;;;6.30;4.10;;;;;;;35.43;21.73;98743.03;5092988;28;42255;-90
2023/03/18 09:01:04;;;;;;;4.72;3.70;;;;;;;35.10;22.54;98716.50;5093721;28;39802;-83
2023/03/18 09:03:32;;;;;;;4.70;4.30;;;;;;;36.20;21.60;98737.16;5076387;28;40949;-84
2023/03/18 09:06:00;;;;;;;5.25;3.85;;;;;;;37.55;20.77;98734.53;5076519;28;44352;-85
2023/03/18 09:08:29;;;;;;;4.95;3.95;;;;;;;38.71;19.50;98740.03;5093386;28;42037;-84
2023/03/18 09:10:59;;;;;;;5.85;3.70;;;;;;;39.70;18.54;98742.91;5076468;28;39944;-82
2023/03/18 09:13:28;;;;;;;4.57;3.67;;;;;;;40.71;18.02;98744.84;5076075;28;40548;-83
2023/03/18 09:15:56;;;;;;;5.72;4.10;;;;;;;41.54;16.86;98747.16;5094397;28;42805;-87
2023/03/18 09:18:24;;;;;;;7.97;4.03;;;;;;;41.84;16.15;98722.78;5093139;28;42187;-86
2023/03/18 09:20:52;;;;;;;5.38;3.70;;;;;;;41.99;16.41;98717.00;5093350;28;39986;-86
2023/03/18 09:23:21;;;;;;;5.50;3.67;;;;;;;42.33;16.23;98718.59;5076046;28;42042;-82
2023/03/18 09:25:50;;;;;;;5.43;3.85;;;;;;;42.43;15.90;98718.44;5076353;28;41962;-86
2023/03/18 09:28:19;;;;;;;3.75;3.45;;;;;;;42.68;15.86;98731.88;5093213;28;40877;-85
2023/03/18 09:30:47;;;;;;;4.20;3.10;;;;;;;42.87;15.13;98729.84;5076634;28;40140;-86
2023/03/18 09:33:15;;;;;;;2.83;2.60;;;;;;;42.52;14.97;98736.09;5076367;28;40974;-88
2023/03/18 09:35:43;;;;;;;4.13;2.90;;;;;;;41.46;15.06;98739.47;5094590;28;42918;-87
2023/03/18 09:38:15;;;;;;;4.22;2.65;;;;;;;40.48;16.26;98721.47;5094440;28;41908;-84
2023/03/18 09:40:55;;;;;;;3.88;2.78;;;;;;;39.90;16.62;98717.84;5093685;28;39761;-84
2023/03/18 09:43:45;;;;;;;4.70;2.30;;;;;;;40.17;16.12;98704.28;5076423;28;41058;-85
2023/03/18 09:46:24;;;;;;;5.00;2.03;;;;;;;39.71;16.23;98725.16;5075823;28;41622;-89
2023/03/18 09:49:16;;;;;;;2.42;2.22;;;;;;;38.91;15.95;98713.41;5093585;28;42196;-85
2023/03/18 09:51:57;;;;;;;4.68;2.92;;;;;;;38.39;16.68;98720.19;5075723;28;39972;-89
2023/03/18 09:54:33;;;;;;;2.85;1.85;;;;;;;38.82;16.03;98717.88;5092898;28;41882;-81
2023/03/18 09:57:03;;;;;;;5.32;2.65;;;;;;;38.47;15.92;98705.75;5079935;28;42028;-86
2023/03/18 09:59:38;;;;;;;2.63;1.90;;;;;;;38.25;15.55;98724.63;5084518;28;42379;-80
2023/03/18 10:02:19;;;;;;;5.05;1.70;;;;;;;38.20;16.09;98713.59;5103419;28;39374;-86
2023/03/18 10:04:53;;;;;;;3.20;1.70;;;;;;;37.72;16.88;98710.22;5076392;28;40561;-84
2023/03/18 10:07:26;;;;;;;3.67;1.90;;;;;;;37.76;16.87;98708.59;5090688;28;43722;-88
2023/03/18 10:09:56;;;;;;;2.33;1.60;;;;;;;38.13;16.42;98688.13;5092590;28;42376;-84
2023/03/18 10:12:31;;;;;;;5.68;1.88;;;;;;;39.22;16.33;98698.31;5095457;28;39269;-89
2023/03/18 10:15:13;;;;;;;7.15;2.15;;;;;;;40.44;15.02;98716.78;5090306;28;42005;-84
2023/03/18 10:17:45;;;;;;;2.10;1.75;;;;;;;41.38;14.89;98719.84;5090319;28;42704;-82
2023/03/18 10:20:18;;;;;;;2.58;1.98;;;;;;;42.26;13.43;98725.41;5075898;28;41340;-85
2023/03/18 10:23:03;;;;;;;2.38;1.90;;;;;;;42.74;12.74;98739.00;5091496;28;40300;-86
2023/03/18 10:25:36;;;;;;;2.85;1.50;;;;;;;43.56;12.97;98726.94;5092266;28;41839;-91
2023/03/18 10:28:29;;;;;;;6.38;1.65;;;;;;;44.40;12.52;98729.91;5090359;28;42788;-86
2023/03/18 10:31:10;;;;;;;4.93;1.80;;;;;;;45.27;11.96;98717.09;5089451;28;42482;-89
2023/03/18 10:33:47;;;;;;;1.70;1.60;;;;;;;46.30;10.75;98728.31;5091211;28;40758;-85
2023/03/18 10:36:19;;;;;;;2.58;1.73;;;;;;;46.97;11.08;98715.53;5090544;28;41818;-85
2023/03/18 10:38:49;;;;;;;2.22;1.90;;;;;;;47.38;10.96;98706.38;5075114;28;42115;-90
2023/03/18 10:41:22;;;;;;;2.50;1.90;;;;;;;47.82;10.18;98710.50;5092169;28;42274;-87
2023/03/18 10:43:53;;;;;;;3.53;2.17;;;;;;;48.07;10.00;98717.03;5075373;28;39962;-86
2023/03/18 10:46:25;;;;;;;3.75;1.85;;;;;;;47.11;10.26;98691.69;5075642;28;40557;-84
2023/03/18 10:48:57;;;;;;;2.00;1.77;;;;;;;47.39;10.80;98702.41;5075274;28;42805;-84
2023/03/18 10:51:31;;;;;;;2.35;2.10;;;;;;;47.73;10.52;98696.53;5090052;28;42006;-83
2023/03/18 10:54:06;;;;;;;3.50;2.05;;;;;;;47.71;10.15;98698.03;5075365;28;38912;-88
2023/03/18 10:56:36;;;;;;;2.47;2.28;;;;;;;47.77;10.73;98703.13;5093247;28;41864;-80
2023/03/18 10:59:12;;;;;;;2.63;2.08;;;;;;;47.58;10.16;98688.75;5091692;28;41873;-84
2023/03/18 11:01:43;;;;;;;2.83;2.20;;;;;;;47.96;11.05;98690.56;5088843;28;42276;-83
2023/03/18 11:04:15;;;;;;;4.45;2.30;;;;;;;48.04;10.17;98692.44;5091519;28;41529;-83
2023/03/18 11:06:47;;;;;;;2.45;1.90;;;;;;;47.78;10.76;98673.88;5074677;28;41393;-87
2023/03/18 11:09:17;;;;;;;2.63;1.77;;;;;;;48.22;10.53;98675.06;5091989;28;43046;-87
2023/03/18 11:11:47;;;;;;;3.13;1.80;;;;;;;48.70;10.14;98679.13;5075073;28;42257;-91
2023/03/18 11:14:18;;;;;;;2.08;1.77;;;;;;;48.76;9.77;98682.50;5091111;28;39190;-84
2023/03/18 11:16:50;;;;;;;2.75;1.80;;;;;;;48.64;10.04;98676.88;5089042;28;42817;-90
2023/03/18 11:19:38;;;;;;;3.53;2.05;;;;;;;47.95;9.92;98674.88;5075326;28;42766;-87
2023/03/18 11:22:19;;;;;;;3.38;1.70;;;;;;;47.91;10.53;98641.03;5074116;28;41521;-87
2023/03/18 11:25:02;;;;;;;3.70;1.73;;;;;;;48.61;10.09;98646.66;5094409;28;20209;-84
2023/03/18 11:27:38;;;;;;;3.17;2.05;;;;;;;49.30;9.90;98671.00;5074711;28;41151;-85
2023/03/18 11:30:14;;;;;;;2.63;2.03;;;;;;;48.89;9.35;98658.88;5085925;28;42951;-85
2023/03/18 11:32:53;;;;;;;2.95;1.65;;;;;;;48.12;9.99;98664.28;5073546;28;41302;-86
2023/03/18 11:35:23;;;;;;;3.65;1.80;;;;;;;47.49;10.84;98657.94;5074390;28;38929;-87
2023/03/18 11:37:51;;;;;;;3.50;1.60;;;;;;;46.59;10.91;98653.88;5090976;28;42525;-89
2023/03/18 11:40:26;;;;;;;2.70;1.85;;;;;;;45.07;11.52;98607.53;5073328;28;42178;-83
2023/03/18 11:42:57;;;;;;;4.05;1.73;;;;;;;44.97;11.04;98641.41;5087299;28;42246;-83
2023/03/18 11:45:35;;;;;;;1.58;1.48;;;;;;;44.00;12.04;98631.31;5087304;28;40095;-86
2023/03/18 11:48:06;;;;;;;1.83;1.50;;;;;;;42.65;12.79;98626.66;5085904;28;41742;-82
2023/03/18 11:50:43;;;;;;;3.28;1.85;;;;;;;41.90;13.47;98621.41;5086955;28;42822;-90
2023/03/18 11:53:20;;;;;;;4.30;1.75;;;;;;;41.42;13.33;98609.72;5072231;28;41647;-82
2023/03/18 11:55:52;;;;;;;3.35;1.98;;;;;;;42.18;12.91;98606.41;5086468;28;40983;-81